createdAt,value
2023-04-28T00:01:53.452Z,26.88
2023-04-28T00:04:22.837Z,29.80
2023-04-28T00:06:52.867Z,29.38
2023-04-28T00:09:22.201Z,29.20
2023-04-28T00:11:51.656Z,24.98
2023-04-28T00:14:21.990Z,25.52
2023-04-28T00:16:52.667Z,30.23
2023-04-28T00:19:22.365Z,29.15
2023-04-28T00:21:51.583Z,29.05
2023-04-28T00:24:20.786Z,25.00
2023-04-28T00:26:49.848Z,31.10
2023-04-28T00:29:19.255Z,27.65
2023-04-28T00:31:49.309Z,27.55
2023-04-28T00:34:19.961Z,25.55
2023-04-28T00:36:49.286Z,25.65
2023-04-28T00:39:19.181Z,25.77
2023-04-28T00:41:48.506Z,21.30
2023-04-28T00:44:17.705Z,17.35
2023-04-28T00:46:47.860Z,17.75
2023-04-28T00:49:17.325Z,19.27
2023-04-28T00:51:47.913Z,16.15
2023-04-28T00:54:18.973Z,16.77
2023-04-28T00:56:48.801Z,18.73
2023-04-28T00:59:18.257Z,20.98
2023-04-28T01:01:49.040Z,28.05
2023-04-28T01:04:19.364Z,22.20
2023-04-28T01:06:52.642Z,15.63
2023-04-28T01:09:22.082Z,19.05
2023-04-28T01:11:53.353Z,19.92
2023-04-28T01:14:37.087Z,21.88
2023-04-28T01:17:06.139Z,18.50
2023-04-28T01:19:36.062Z,20.92
2023-04-28T01:22:06.721Z,20.60
2023-04-28T01:24:37.741Z,15.17
2023-04-28T01:27:09.242Z,20.40
2023-04-28T01:29:40.390Z,15.37
2023-04-28T01:32:09.527Z,17.67
2023-04-28T01:34:38.589Z,18.85
2023-04-28T01:37:08.864Z,19.98
2023-04-28T01:39:40.928Z,20.95
2023-04-28T01:42:09.957Z,20.98
2023-04-28T01:44:39.066Z,22.85
2023-04-28T01:47:08.572Z,30.92
2023-04-28T01:49:38.110Z,28.88
2023-04-28T01:52:10.185Z,36.47
2023-04-28T01:54:39.290Z,31.27
2023-04-28T01:57:10.229Z,30.50
2023-04-28T01:59:39.903Z,32.28
2023-04-28T02:02:09.169Z,31.15
2023-04-28T02:04:39.725Z,31.80
2023-04-28T02:07:08.991Z,37.47
2023-04-28T02:09:38.067Z,32.17
2023-04-28T02:12:08.205Z,36.47
2023-04-28T02:14:39.068Z,30.25
2023-04-28T02:17:08.054Z,30.50
2023-04-28T02:19:38.686Z,28.33
2023-04-28T02:22:08.497Z,30.08
2023-04-28T02:24:38.741Z,31.77
2023-04-28T02:27:07.897Z,28.27
2023-04-28T02:29:37.071Z,30.13
2023-04-28T02:32:08.682Z,23.15
2023-04-28T02:34:38.092Z,25.15
2023-04-28T02:37:07.529Z,29.67
2023-04-28T02:39:36.552Z,27.70
2023-04-28T02:42:05.750Z,33.08
2023-04-28T02:44:34.906Z,32.10
2023-04-28T02:47:04.207Z,33.70
2023-04-28T02:49:34.911Z,29.23
2023-04-28T02:52:04.118Z,32.17
2023-04-28T02:54:34.405Z,34.63
2023-04-28T02:57:04.834Z,31.33
2023-04-28T02:59:35.430Z,24.73
2023-04-28T03:02:04.643Z,29.60
2023-04-28T03:04:35.036Z,29.33
2023-04-28T03:07:04.342Z,26.13
2023-04-28T03:09:33.484Z,23.13
2023-04-28T03:12:03.486Z,30.23
2023-04-28T03:14:34.793Z,25.80
2023-04-28T03:17:04.688Z,26.67
2023-04-28T03:19:36.363Z,25.58
2023-04-28T03:22:05.702Z,27.20
2023-04-28T03:24:35.287Z,22.52
2023-04-28T03:27:05.852Z,26.38
2023-04-28T03:29:35.104Z,25.00
2023-04-28T03:32:04.267Z,27.48
2023-04-28T03:34:33.261Z,24.23
2023-04-28T03:37:03.800Z,28.15
2023-04-28T03:39:33.191Z,24.48
2023-04-28T03:42:02.282Z,23.52
2023-04-28T03:44:51.263Z,22.27
2023-04-28T03:47:20.527Z,18.05
2023-04-28T03:49:50.700Z,19.90
2023-04-28T03:52:21.220Z,23.10
2023-04-28T03:54:50.568Z,24.35
2023-04-28T03:57:23.466Z,27.38
2023-04-28T03:59:53.266Z,27.30
2023-04-28T04:02:22.683Z,25.92
2023-04-28T04:04:52.389Z,24.38
2023-04-28T04:07:24.172Z,25.67
2023-04-28T04:09:53.357Z,25.58
2023-04-28T04:12:22.478Z,26.77
2023-04-28T04:14:51.476Z,27.38
2023-04-28T04:17:22.125Z,31.23
2023-04-28T04:19:51.436Z,31.23
2023-04-28T04:22:20.825Z,24.08
2023-04-28T04:24:51.848Z,19.98
2023-04-28T04:27:21.120Z,22.23
2023-04-28T04:29:50.385Z,22.45
2023-04-28T04:32:19.971Z,29.92
2023-04-28T04:34:50.267Z,33.10
2023-04-28T04:37:20.041Z,34.08
2023-04-28T04:40:00.783Z,19.30
2023-04-28T04:42:36.635Z,24.00
2023-04-28T04:45:12.381Z,25.38
2023-04-28T04:47:42.450Z,29.60
2023-04-28T04:50:12.657Z,24.67
2023-04-28T04:52:45.776Z,26.40
2023-04-28T04:55:16.500Z,23.63
2023-04-28T04:57:48.398Z,22.77
2023-04-28T05:00:37.835Z,25.05
2023-04-28T05:03:07.991Z,27.92
2023-04-28T05:05:37.652Z,24.30
2023-04-28T05:08:23.118Z,26.48
2023-04-28T05:10:55.837Z,23.95
2023-04-28T05:13:28.780Z,25.70
2023-04-28T05:16:05.699Z,29.20
2023-04-28T05:18:53.782Z,24.25
2023-04-28T05:21:27.309Z,29.17
2023-04-28T05:23:57.407Z,25.15
2023-04-28T05:26:28.325Z,19.52
2023-04-28T05:29:04.962Z,19.63
2023-04-28T05:31:36.078Z,35.55
2023-04-28T05:34:06.055Z,28.88
2023-04-28T05:36:38.068Z,20.40
2023-04-28T05:39:12.808Z,25.65
2023-04-28T05:41:45.074Z,27.85
2023-04-28T05:44:15.090Z,33.55
2023-04-28T05:46:44.524Z,28.17
2023-04-28T05:49:13.921Z,28.27
2023-04-28T05:51:45.957Z,23.23
2023-04-28T05:54:17.937Z,19.00
2023-04-28T05:56:52.558Z,23.58
2023-04-28T05:59:24.699Z,22.35
2023-04-28T06:01:58.263Z,28.13
2023-04-28T06:04:27.874Z,24.38
2023-04-28T06:06:57.876Z,19.85
2023-04-28T06:09:27.613Z,18.98
2023-04-28T06:12:00.638Z,24.42
2023-04-28T06:14:32.796Z,29.90
2023-04-28T06:17:06.359Z,29.23
2023-04-28T06:19:38.854Z,24.17
2023-04-28T06:22:08.236Z,31.63
2023-04-28T06:24:38.158Z,29.48
2023-04-28T06:27:13.363Z,19.70
2023-04-28T06:29:42.751Z,19.35
2023-04-28T06:32:12.048Z,22.27
2023-04-28T06:34:41.891Z,23.80
2023-04-28T06:37:13.996Z,20.50
2023-04-28T06:39:44.076Z,21.42
2023-04-28T06:42:19.273Z,22.67
2023-04-28T06:44:56.341Z,23.35
2023-04-28T06:47:26.164Z,20.48
2023-04-28T06:49:58.767Z,23.60
2023-04-28T06:52:38.548Z,20.55
2023-04-28T06:55:17.775Z,24.85
2023-04-28T06:57:50.207Z,22.27
2023-04-28T07:00:19.736Z,19.95
2023-04-28T07:02:48.942Z,26.40
2023-04-28T07:05:18.023Z,28.50
2023-04-28T07:07:47.423Z,18.38
2023-04-28T07:10:16.986Z,20.10
2023-04-28T07:12:46.356Z,19.02
2023-04-28T07:15:17.691Z,23.08
2023-04-28T07:17:47.432Z,28.90
2023-04-28T07:20:16.981Z,69.32
2023-04-28T07:22:49.252Z,21.85
2023-04-28T07:27:48.104Z,23.88
2023-04-28T07:32:54.849Z,28.20
2023-04-28T07:35:23.912Z,18.77
2023-04-28T07:37:53.605Z,25.35
2023-04-28T07:40:26.495Z,24.55
2023-04-28T07:42:57.964Z,18.60
2023-04-28T07:45:30.964Z,23.88
2023-04-28T07:48:00.049Z,25.92
2023-04-28T07:50:29.512Z,28.50
2023-04-28T07:53:00.650Z,21.45
2023-04-28T07:55:34.583Z,24.13
2023-04-28T07:58:03.835Z,27.98
2023-04-28T08:00:36.579Z,27.77
2023-04-28T08:03:05.993Z,25.20
2023-04-28T08:05:35.383Z,24.58
2023-04-28T08:08:04.500Z,27.73
2023-04-28T08:10:33.783Z,20.00
2023-04-28T08:13:05.041Z,24.33
2023-04-28T08:15:35.867Z,24.05
2023-04-28T08:18:05.633Z,24.55
2023-04-28T08:20:41.260Z,22.42
2023-04-28T08:23:10.900Z,26.50
2023-04-28T08:25:42.797Z,24.25
2023-04-28T08:28:14.474Z,21.42
2023-04-28T08:30:46.319Z,24.50
2023-04-28T08:35:48.798Z,21.17
2023-04-28T08:38:18.395Z,21.83
2023-04-28T08:40:47.876Z,17.73
2023-04-28T08:43:17.164Z,17.63
2023-04-28T08:45:48.024Z,19.30
2023-04-28T08:48:23.082Z,23.35
2023-04-28T08:50:53.615Z,19.33
2023-04-28T08:53:26.580Z,19.75
2023-04-28T08:55:57.645Z,25.35
2023-04-28T08:58:27.461Z,30.40
2023-04-28T09:01:04.858Z,25.98
2023-04-28T09:03:34.894Z,25.45
2023-04-28T09:06:04.358Z,33.67
2023-04-28T09:08:33.803Z,28.95
2023-04-28T09:11:14.856Z,26.67
2023-04-28T09:13:44.383Z,28.15
2023-04-28T09:16:16.532Z,25.33
2023-04-28T09:18:58.271Z,22.67
2023-04-28T09:21:48.198Z,33.65
2023-04-28T09:24:35.617Z,25.75
2023-04-28T09:27:11.492Z,23.20
2023-04-28T09:29:41.153Z,23.20
2023-04-28T09:32:19.111Z,32.63
2023-04-28T09:34:50.239Z,21.88
2023-04-28T09:37:20.416Z,26.20
2023-04-28T09:39:51.003Z,20.50
2023-04-28T09:42:33.737Z,26.92
2023-04-28T09:45:06.433Z,27.58
2023-04-28T09:47:38.735Z,25.80
2023-04-28T09:50:13.494Z,24.85
2023-04-28T09:52:46.949Z,21.70
2023-04-28T09:55:17.917Z,26.13
2023-04-28T09:57:50.070Z,26.83
2023-04-28T10:00:20.469Z,31.58
2023-04-28T10:02:52.023Z,25.83
2023-04-28T10:05:26.136Z,26.83
2023-04-28T10:08:01.601Z,23.25
2023-04-28T10:10:40.334Z,26.15
2023-04-28T10:13:09.380Z,27.55
2023-04-28T10:15:43.028Z,29.25
2023-04-28T10:18:15.880Z,27.92
2023-04-28T10:20:46.389Z,28.73
2023-04-28T10:23:39.682Z,26.42
2023-04-28T10:26:14.916Z,21.27
2023-04-28T10:28:49.134Z,24.05
2023-04-28T10:31:21.177Z,25.25
2023-04-28T10:36:43.995Z,29.30
2023-04-28T10:39:17.403Z,32.30
2023-04-28T10:41:50.167Z,25.48
2023-04-28T10:44:38.989Z,29.20
2023-04-28T10:47:09.830Z,25.40
2023-04-28T10:49:59.618Z,33.03
2023-04-28T10:52:47.537Z,29.63
2023-04-28T10:55:33.226Z,29.10
2023-04-28T10:58:33.372Z,26.88
2023-04-28T11:01:22.084Z,28.70
2023-04-28T11:03:54.962Z,30.10
2023-04-28T11:06:28.718Z,21.83
2023-04-28T11:09:00.747Z,24.52
2023-04-28T11:11:32.788Z,23.85
2023-04-28T11:14:31.814Z,30.42
2023-04-28T11:17:04.124Z,59.25
2023-04-28T11:19:34.409Z,91.90
2023-04-28T11:22:04.428Z,27.15
2023-04-28T11:24:34.514Z,27.38
2023-04-28T11:27:12.212Z,24.08
2023-04-28T11:29:42.977Z,39.53
2023-04-28T11:32:30.063Z,26.58
2023-04-28T11:34:59.634Z,26.83
2023-04-28T11:37:30.937Z,24.17
2023-04-28T11:40:00.335Z,29.77
2023-04-28T11:42:31.927Z,35.40
2023-04-28T11:45:01.224Z,28.80
2023-04-28T11:47:32.750Z,34.72
2023-04-28T11:50:03.448Z,29.60
2023-04-28T11:52:32.810Z,23.25
2023-04-28T11:55:05.356Z,21.55
2023-04-28T11:57:39.852Z,25.65
2023-04-28T12:00:19.774Z,30.38
2023-04-28T12:02:49.573Z,28.80
2023-04-28T12:05:20.922Z,30.30
2023-04-28T12:07:50.493Z,27.38
2023-04-28T12:10:22.184Z,25.65
2023-04-28T12:12:53.482Z,29.45
2023-04-28T12:15:25.179Z,28.05
2023-04-28T12:17:54.592Z,36.20
2023-04-28T12:20:39.757Z,29.20
2023-04-28T12:23:09.579Z,22.13
2023-04-28T12:25:45.666Z,29.50
2023-04-28T12:28:16.369Z,28.80
2023-04-28T12:30:46.373Z,30.42
2023-04-28T12:33:25.727Z,29.48
2023-04-28T12:35:56.090Z,27.75
2023-04-28T12:38:25.920Z,28.30
2023-04-28T12:40:56.429Z,25.40
2023-04-28T12:43:29.638Z,23.13
2023-04-28T12:45:58.669Z,27.38
2023-04-28T12:48:28.307Z,30.20
2023-04-28T12:50:57.753Z,29.15
2023-04-28T12:53:27.205Z,22.40
2023-04-28T12:55:58.903Z,19.52
2023-04-28T12:58:37.339Z,21.38
2023-04-28T13:01:16.174Z,29.58
2023-04-28T13:03:45.580Z,32.08
2023-04-28T13:06:15.570Z,27.10
2023-04-28T13:08:45.084Z,26.08
2023-04-28T13:11:22.661Z,25.63
2023-04-28T13:13:57.145Z,27.73
2023-04-28T13:16:29.021Z,30.75
2023-04-28T13:18:59.280Z,30.60
2023-04-28T13:21:29.514Z,24.90
2023-04-28T13:23:58.750Z,29.60
2023-04-28T13:26:31.688Z,29.30
2023-04-28T13:29:02.458Z,31.63
2023-04-28T13:31:32.133Z,28.23
2023-04-28T13:34:02.311Z,31.55
2023-04-28T13:36:32.689Z,30.67
2023-04-28T13:39:03.079Z,24.02
2023-04-28T13:41:33.109Z,26.67
2023-04-28T13:44:07.204Z,26.33
2023-04-28T13:46:39.476Z,27.35
2023-04-28T13:49:12.622Z,27.48
2023-04-28T13:51:42.044Z,22.98
2023-04-28T13:54:11.818Z,21.75
2023-04-28T13:56:41.500Z,22.23
2023-04-28T13:59:13.081Z,24.17
2023-04-28T14:01:43.637Z,25.70
2023-04-28T14:04:13.306Z,30.23
2023-04-28T14:06:46.058Z,30.80
2023-04-28T14:09:16.370Z,31.00
2023-04-28T14:11:46.689Z,26.77
2023-04-28T14:14:17.503Z,25.50
2023-04-28T14:16:47.661Z,22.55
2023-04-28T14:19:18.316Z,19.77
2023-04-28T14:21:48.160Z,24.35
2023-04-28T14:24:18.775Z,27.35
2023-04-28T14:26:49.648Z,23.17
2023-04-28T14:29:20.642Z,25.92
2023-04-28T14:31:52.986Z,21.85
2023-04-28T14:36:51.740Z,24.85
2023-04-28T14:39:21.237Z,31.98
2023-04-28T14:41:50.490Z,25.10
2023-04-28T14:44:22.771Z,29.17
2023-04-28T14:49:21.189Z,26.50
2023-04-28T14:51:51.140Z,24.88
2023-04-28T14:54:20.514Z,26.30
2023-04-28T14:56:50.698Z,27.73
2023-04-28T14:59:21.318Z,26.60
2023-04-28T15:01:51.789Z,19.20
2023-04-28T15:04:21.911Z,24.60
2023-04-28T15:06:51.218Z,26.00
2023-04-28T15:09:20.469Z,32.42
2023-04-28T15:11:49.807Z,29.52
2023-04-28T15:14:18.929Z,24.08
2023-04-28T15:16:50.409Z,26.00
2023-04-28T15:19:19.531Z,31.60
2023-04-28T15:21:49.371Z,27.55
2023-04-28T15:24:20.703Z,31.40
2023-04-28T15:26:53.713Z,32.38
2023-04-28T15:29:24.208Z,31.15
2023-04-28T15:31:56.713Z,28.17
2023-04-28T15:34:25.994Z,29.15
2023-04-28T15:36:55.300Z,24.38
2023-04-28T15:39:25.709Z,30.98
2023-04-28T15:41:58.872Z,28.20
2023-04-28T15:44:30.721Z,22.35
2023-04-28T15:47:02.181Z,32.28
2023-04-28T15:49:31.733Z,21.45
2023-04-28T15:52:01.287Z,25.65
2023-04-28T15:54:31.316Z,27.70
2023-04-28T15:57:01.700Z,26.80
2023-04-28T15:59:33.630Z,30.17
2023-04-28T16:02:04.539Z,23.58
2023-04-28T16:04:34.154Z,32.92
2023-04-28T16:07:13.339Z,29.00
2023-04-28T16:09:44.093Z,30.45
2023-04-28T16:12:13.363Z,25.85
2023-04-28T16:14:43.061Z,33.58
2023-04-28T16:17:14.608Z,34.97
2023-04-28T16:19:44.032Z,28.30
2023-04-28T16:22:13.290Z,30.15
2023-04-28T16:24:47.248Z,23.85
2023-04-28T16:27:16.727Z,28.38
2023-04-28T16:29:46.104Z,27.92
2023-04-28T16:32:18.010Z,33.65
2023-04-28T16:34:47.517Z,30.17
2023-04-28T16:37:17.544Z,31.77
2023-04-28T16:39:49.784Z,28.23
2023-04-28T16:44:53.460Z,33.42
2023-04-28T16:47:25.516Z,31.77
2023-04-28T16:52:24.960Z,31.88
2023-04-28T16:54:54.161Z,30.33
2023-04-28T16:57:23.894Z,37.42
2023-04-28T16:59:53.482Z,35.33
2023-04-28T17:02:24.506Z,32.00
2023-04-28T17:04:55.523Z,35.53
2023-04-28T17:07:27.770Z,31.10
2023-04-28T17:10:05.160Z,31.85
2023-04-28T17:12:35.493Z,28.25
2023-04-28T17:15:06.299Z,29.80
2023-04-28T17:17:37.502Z,30.20
2023-04-28T17:20:07.070Z,36.10
2023-04-28T17:22:36.498Z,29.67
2023-04-28T17:25:06.191Z,31.92
2023-04-28T17:27:39.169Z,32.80
2023-04-28T17:30:11.615Z,27.70
2023-04-28T17:32:42.418Z,30.15
2023-04-28T17:35:12.162Z,34.28
2023-04-28T17:37:42.974Z,30.00
2023-04-28T17:40:12.848Z,32.80
2023-04-28T17:42:42.408Z,28.45
2023-04-28T17:45:13.789Z,34.22
2023-04-28T17:47:50.785Z,29.23
2023-04-28T17:50:20.729Z,33.70
2023-04-28T17:52:50.353Z,38.70
2023-04-28T17:55:21.089Z,37.53
2023-04-28T17:57:51.818Z,32.22
2023-04-28T18:00:21.341Z,39.45
2023-04-28T18:05:26.578Z,32.90
2023-04-28T18:07:56.297Z,34.72
2023-04-28T18:10:29.668Z,29.73
2023-04-28T18:13:00.502Z,29.75
2023-04-28T18:15:30.583Z,36.57
2023-04-28T18:18:02.930Z,31.52
2023-04-28T18:20:36.322Z,36.08
2023-04-28T18:23:06.221Z,32.45
2023-04-28T18:25:36.493Z,31.42
2023-04-28T18:28:13.069Z,31.63
2023-04-28T18:30:41.610Z,31.00
2023-04-28T18:33:11.971Z,33.67
2023-04-28T18:35:42.843Z,31.92
2023-04-28T18:38:14.661Z,35.28
2023-04-28T18:40:44.286Z,32.60
2023-04-28T18:43:16.704Z,31.35
2023-04-28T18:45:45.895Z,27.35
2023-04-28T18:48:15.431Z,33.97
2023-04-28T18:50:47.925Z,33.55
2023-04-28T18:53:17.394Z,28.25
2023-04-28T18:55:47.630Z,31.95
2023-04-28T18:58:18.132Z,36.13
2023-04-28T19:00:48.810Z,31.80
2023-04-28T19:03:18.706Z,38.78
2023-04-28T19:05:49.745Z,45.83
2023-04-28T19:08:19.258Z,42.00
2023-04-28T19:10:49.099Z,38.50
2023-04-28T19:13:20.050Z,43.00
2023-04-28T19:15:49.623Z,42.05
2023-04-28T19:18:19.494Z,42.13
2023-04-28T19:20:52.350Z,39.00
2023-04-28T19:23:21.777Z,42.05
2023-04-28T19:25:51.105Z,37.83
2023-04-28T19:28:20.455Z,35.53
2023-04-28T19:30:50.184Z,39.33
2023-04-28T19:33:19.423Z,36.10
2023-04-28T19:35:50.287Z,30.98
2023-04-28T19:38:23.225Z,33.80
2023-04-28T19:41:01.757Z,41.17
2023-04-28T19:43:31.655Z,32.22
2023-04-28T19:46:00.942Z,51.72
2023-04-28T19:48:30.104Z,60.70
2023-04-28T19:51:00.618Z,62.90
2023-04-28T19:53:29.802Z,59.20
2023-04-28T19:56:04.507Z,57.88
2023-04-28T19:58:34.079Z,58.63
2023-04-28T20:01:03.352Z,56.75
2023-04-28T20:03:33.077Z,51.70
2023-04-28T20:06:05.396Z,48.85
2023-04-28T20:08:34.673Z,48.45
2023-04-28T20:11:05.270Z,47.00
2023-04-28T20:13:34.906Z,43.22
2023-04-28T20:16:04.297Z,40.33
2023-04-28T20:18:33.444Z,43.83
2023-04-28T20:21:03.501Z,43.72
2023-04-28T20:23:36.892Z,40.83
2023-04-28T20:26:06.219Z,45.75
2023-04-28T20:28:35.440Z,45.95
2023-04-28T20:31:04.695Z,41.63
2023-04-28T20:33:33.720Z,43.13
2023-04-28T20:36:03.389Z,41.45
2023-04-28T20:38:33.433Z,44.20
2023-04-28T20:41:04.498Z,43.20
2023-04-28T20:43:33.747Z,44.47
2023-04-28T20:46:02.883Z,45.10
2023-04-28T20:48:34.880Z,46.90
2023-04-28T20:51:03.995Z,48.50
2023-04-28T20:53:33.303Z,46.08
2023-04-28T20:56:04.182Z,43.78
2023-04-28T20:58:33.434Z,43.95
2023-04-28T21:01:03.341Z,42.40
2023-04-28T21:03:32.542Z,40.45
2023-04-28T21:06:01.872Z,42.35
2023-04-28T21:08:31.065Z,47.08
2023-04-28T21:11:00.384Z,43.97
2023-04-28T21:13:34.833Z,40.03
2023-04-28T21:16:04.826Z,45.67
2023-04-28T21:18:34.167Z,43.45
2023-04-28T21:21:03.728Z,40.50
2023-04-28T21:23:37.732Z,43.78
2023-04-28T21:26:07.905Z,41.85
2023-04-28T21:28:40.052Z,43.20
2023-04-28T21:31:09.969Z,45.25
2023-04-28T21:33:39.255Z,48.25
2023-04-28T21:36:09.238Z,45.72
2023-04-28T21:38:39.118Z,37.63
2023-04-28T21:41:08.868Z,39.10
2023-04-28T21:43:39.458Z,35.63
2023-04-28T21:46:10.034Z,37.58
2023-04-28T21:48:39.330Z,43.67
2023-04-28T21:51:08.720Z,39.00
2023-04-28T21:53:41.351Z,39.03
2023-04-28T21:56:10.523Z,41.70
2023-04-28T21:58:41.905Z,39.08
2023-04-28T22:01:12.030Z,40.25
2023-04-28T22:03:42.318Z,40.35
2023-04-28T22:06:24.914Z,36.67
2023-04-28T22:11:23.362Z,38.63
2023-04-28T22:14:02.205Z,44.28
2023-04-28T22:16:31.773Z,45.17
2023-04-28T22:19:03.854Z,45.50
2023-04-28T22:21:33.563Z,38.92
2023-04-28T22:24:07.094Z,60.50
2023-04-28T22:26:38.211Z,51.40
2023-04-28T22:29:12.473Z,58.28
2023-04-28T22:31:44.019Z,50.28
2023-04-28T22:34:13.396Z,52.70
2023-04-28T22:36:43.090Z,58.63
2023-04-28T22:39:15.633Z,50.47
2023-04-28T22:41:45.955Z,60.97
2023-04-28T22:44:17.056Z,40.80
2023-04-28T22:46:46.261Z,41.58
2023-04-28T22:49:15.661Z,44.45
2023-04-28T22:51:45.112Z,49.45
2023-04-28T22:54:18.214Z,49.72
2023-04-28T22:56:47.563Z,45.42
2023-04-28T22:59:18.304Z,46.13
2023-04-28T23:01:51.271Z,55.30
2023-04-28T23:04:21.882Z,49.85
2023-04-28T23:06:54.624Z,50.10
2023-04-28T23:09:26.842Z,57.00
2023-04-28T23:11:56.890Z,50.88
2023-04-28T23:14:27.737Z,48.45
2023-04-28T23:16:58.561Z,43.90
2023-04-28T23:19:30.346Z,55.65
2023-04-28T23:21:59.944Z,57.92
2023-04-28T23:24:32.900Z,54.10
2023-04-28T23:27:02.657Z,52.15
2023-04-28T23:29:33.669Z,55.83
2023-04-28T23:32:03.646Z,59.95
2023-04-28T23:34:33.300Z,50.65
2023-04-28T23:37:03.184Z,59.53
2023-04-28T23:39:34.069Z,49.10
2023-04-28T23:42:03.588Z,50.60
2023-04-28T23:44:34.470Z,49.92
2023-04-28T23:47:03.781Z,47.30
2023-04-28T23:49:36.286Z,53.60
2023-04-28T23:52:05.426Z,51.35
2023-04-28T23:54:34.760Z,55.58
2023-04-28T23:57:04.721Z,55.63
2023-04-28T23:59:35.729Z,51.42
